Time;durP1;ratioP1;P1;durP2;ratioP2;P2;SDS_P1;SDS_P2;PMS_P1;PMS_P2;Temp;Humidity;BMP_temperature;BMP_pressure;BME280_temperature;BME280_humidity;BME280_pressure;Samples;Min_cycle;Max_cycle;Signal;HPM_P1;HPM_P2
2022/02/24 00:01:08;;;;;;;10.27;3.13;;;8.40;99.90;;;;;;6201432;23;20809;-77
2022/02/24 00:03:35;;;;;;;15.93;3.23;;;8.40;99.90;;;;;;6202585;23;20181;-77
2022/02/24 00:06:02;;;;;;;9.63;2.90;;;8.40;99.90;;;;;;6203614;23;20229;-77
2022/02/24 00:08:28;;;;;;;15.50;3.20;;;8.40;99.90;;;;;;6203556;23;20181;-77
2022/02/24 00:10:55;;;;;;;10.70;3.17;;;8.40;99.90;;;;;;6203329;23;20194;-78
2022/02/24 00:13:22;;;;;;;11.77;2.70;;;8.40;99.90;;;;;;6203831;23;20586;-78
2022/02/24 00:15:50;;;;;;;11.40;3.60;;;8.40;99.90;;;;;;6203268;23;20174;-78
2022/02/24 00:18:17;;;;;;;16.80;3.70;;;8.40;99.90;;;;;;6202681;23;20178;-77
2022/02/24 00:20:44;;;;;;;12.47;4.47;;;8.40;99.90;;;;;;6204078;23;20166;-78
2022/02/24 00:23:10;;;;;;;9.93;3.37;;;8.40;99.90;;;;;;6203957;23;20210;-76
2022/02/24 00:25:37;;;;;;;10.60;3.70;;;8.40;99.90;;;;;;6203486;23;20189;-77
2022/02/24 00:28:04;;;;;;;14.53;2.73;;;8.40;99.90;;;;;;6203857;23;20174;-76
2022/02/24 00:30:31;;;;;;;8.63;2.70;;;8.40;99.90;;;;;;6203221;23;20507;-77
2022/02/24 00:32:59;;;;;;;13.33;3.73;;;8.40;99.90;;;;;;6202571;23;20173;-77
2022/02/24 00:35:26;;;;;;;13.13;3.10;;;8.30;99.90;;;;;;6204364;23;20178;-77
2022/02/24 00:37:53;;;;;;;12.20;3.30;;;8.40;99.90;;;;;;6204982;23;20177;-77
2022/02/24 00:40:20;;;;;;;13.10;3.47;;;8.40;99.90;;;;;;6205496;23;20170;-77
2022/02/24 00:42:47;;;;;;;16.43;3.37;;;8.30;99.90;;;;;;6205161;23;20178;-78
2022/02/24 00:45:14;;;;;;;17.77;3.73;;;8.30;99.90;;;;;;6204890;23;20228;-77
2022/02/24 00:47:41;;;;;;;16.90;3.63;;;8.30;99.90;;;;;;6205315;23;20178;-76
2022/02/24 00:50:09;;;;;;;15.93;3.83;;;8.30;99.90;;;;;;6205313;23;20618;-76
2022/02/24 00:52:36;;;;;;;12.27;3.17;;;8.30;99.90;;;;;;6205082;23;20185;-76
2022/02/24 00:55:03;;;;;;;13.47;2.93;;;8.30;99.90;;;;;;6205488;23;20174;-78
2022/02/24 00:57:30;;;;;;;13.10;3.20;;;8.20;99.90;;;;;;6205202;23;20174;-77
2022/02/24 00:59:57;;;;;;;16.73;3.40;;;8.20;99.90;;;;;;6204513;23;20673;-78
2022/02/24 01:02:23;;;;;;;14.90;3.57;;;8.30;99.90;;;;;;6205586;23;20181;-78
2022/02/24 01:04:50;;;;;;;11.37;3.27;;;8.30;99.90;;;;;;6204977;23;20170;-77
2022/02/24 01:07:18;;;;;;;15.20;3.77;;;8.30;99.90;;;;;;6204586;23;20178;-77
2022/02/24 01:09:45;;;;;;;12.47;2.90;;;8.40;99.90;;;;;;6204809;23;20178;-77
2022/02/24 01:12:12;;;;;;;12.70;3.47;;;8.30;99.90;;;;;;6205732;23;20174;-78
2022/02/24 01:14:39;;;;;;;14.97;4.00;;;8.30;99.90;;;;;;6204363;23;20213;-78
2022/02/24 01:17:05;;;;;;;14.77;3.30;;;8.20;99.90;;;;;;6205551;23;20212;-78
2022/02/24 01:19:32;;;;;;;14.47;3.53;;;8.20;99.90;;;;;;6204492;23;20174;-76
2022/02/24 01:21:59;;;;;;;10.30;2.83;;;8.20;99.90;;;;;;6204912;23;20174;-76
2022/02/24 01:24:27;;;;;;;13.97;3.67;;;8.20;99.90;;;;;;6205249;23;20166;-77
2022/02/24 01:26:54;;;;;;;10.70;2.80;;;8.10;99.90;;;;;;6205591;23;20178;-76
2022/02/24 01:29:21;;;;;;;10.73;2.80;;;8.10;99.90;;;;;;6204956;23;20185;-77
2022/02/24 01:31:48;;;;;;;12.90;3.37;;;8.10;99.90;;;;;;6204891;23;20545;-77
2022/02/24 01:34:16;;;;;;;10.67;2.63;;;8.10;99.90;;;;;;6204565;23;20181;-76
2022/02/24 01:36:43;;;;;;;18.17;3.17;;;8.00;99.90;;;;;;6204626;23;20471;-77
2022/02/24 01:39:10;;;;;;;18.20;3.30;;;8.10;99.90;;;;;;6205107;23;20486;-75
2022/02/24 01:41:38;;;;;;;12.57;3.00;;;8.10;99.90;;;;;;6204554;23;20656;-76
2022/02/24 01:44:09;;;;;;;13.03;2.87;;;8.00;99.90;;;;;;6205014;23;20589;-77
2022/02/24 01:46:36;;;;;;;12.90;3.33;;;8.10;99.90;;;;;;6204776;23;20262;-77
2022/02/24 01:49:04;;;;;;;17.10;3.80;;;8.10;99.90;;;;;;6203920;23;20177;-75
2022/02/24 01:51:30;;;;;;;18.90;3.80;;;8.10;99.90;;;;;;6204420;23;20614;-77
2022/02/24 01:53:57;;;;;;;13.50;3.80;;;8.10;99.90;;;;;;6204988;23;20208;-77
2022/02/24 01:56:24;;;;;;;16.67;3.27;;;8.10;99.90;;;;;;6203868;23;20159;-77
2022/02/24 01:58:52;;;;;;;13.97;3.07;;;8.10;99.90;;;;;;6205199;23;20166;-77
2022/02/24 02:01:19;;;;;;;15.57;3.83;;;8.20;99.90;;;;;;6204723;23;20181;-77
2022/02/24 02:03:46;;;;;;;15.93;4.30;;;8.10;99.90;;;;;;6204324;23;20166;-77
2022/02/24 02:06:12;;;;;;;15.60;3.23;;;8.10;99.90;;;;;;6204698;23;20178;-78
2022/02/24 02:08:39;;;;;;;16.37;3.13;;;8.20;99.90;;;;;;6204504;23;20562;-76
2022/02/24 02:11:06;;;;;;;15.90;3.47;;;8.10;99.90;;;;;;6204207;23;20603;-77
2022/02/24 02:13:34;;;;;;;14.47;3.57;;;8.10;99.90;;;;;;6204673;23;20547;-76
2022/02/24 02:16:02;;;;;;;16.33;3.47;;;8.10;99.90;;;;;;6204077;23;20170;-77
2022/02/24 02:18:29;;;;;;;15.83;4.10;;;8.10;99.90;;;;;;6205225;23;20185;-76
2022/02/24 02:20:57;;;;;;;15.10;3.93;;;8.10;99.90;;;;;;6203560;23;20170;-77
2022/02/24 02:23:24;;;;;;;19.53;4.03;;;8.10;99.90;;;;;;6204313;23;20201;-77
2022/02/24 02:25:51;;;;;;;19.37;4.93;;;8.10;99.90;;;;;;6203971;23;20443;-77
2022/02/24 02:28:18;;;;;;;20.97;6.00;;;8.00;99.90;;;;;;6204506;23;20507;-76
2022/02/24 02:30:45;;;;;;;16.63;3.87;;;8.00;99.90;;;;;;6204125;23;20198;-77
2022/02/24 02:33:12;;;;;;;15.00;4.03;;;7.90;99.90;;;;;;6203935;23;20413;-76
2022/02/24 02:35:39;;;;;;;11.80;3.90;;;7.90;99.90;;;;;;6204405;23;20170;-76
2022/02/24 02:38:07;;;;;;;20.80;4.30;;;8.00;99.90;;;;;;6203872;23;20174;-76
2022/02/24 02:40:37;;;;;;;23.03;3.93;;;7.90;99.90;;;;;;6204286;23;20814;-77
2022/02/24 02:43:05;;;;;;;22.87;4.03;;;7.90;99.90;;;;;;6204146;23;20174;-77
2022/02/24 02:45:31;;;;;;;13.83;3.07;;;7.90;99.90;;;;;;6202865;23;20272;-77
2022/02/24 02:47:59;;;;;;;16.17;3.83;;;7.80;99.90;;;;;;6203839;23;20178;-77
2022/02/24 02:50:26;;;;;;;16.37;4.10;;;7.80;99.90;;;;;;6204723;23;20275;-78
2022/02/24 02:52:53;;;;;;;17.90;3.73;;;7.80;99.90;;;;;;6203082;23;20225;-77
2022/02/24 02:55:21;;;;;;;24.37;4.83;;;7.80;99.90;;;;;;6204730;23;20180;-78
2022/02/24 02:57:49;;;;;;;16.30;3.90;;;7.70;99.90;;;;;;6203863;23;20444;-77
2022/02/24 03:00:17;;;;;;;18.33;3.90;;;7.70;99.90;;;;;;6203875;23;20205;-77
2022/02/24 03:02:43;;;;;;;15.37;3.40;;;7.70;99.90;;;;;;6204608;23;20236;-77
2022/02/24 03:05:11;;;;;;;21.47;5.87;;;7.70;99.90;;;;;;6203402;23;20170;-78
2022/02/24 03:07:38;;;;;;;20.90;4.67;;;7.70;99.90;;;;;;6204300;23;20178;-76
2022/02/24 03:10:06;;;;;;;19.27;3.97;;;7.70;99.90;;;;;;6204118;23;20174;-77
2022/02/24 03:12:36;;;;;;;22.40;5.93;;;7.60;99.90;;;;;;6203817;23;20598;-77
2022/02/24 03:15:03;;;;;;;13.33;3.80;;;7.60;99.90;;;;;;6203843;23;20180;-76
2022/02/24 03:17:30;;;;;;;16.20;3.53;;;7.60;99.90;;;;;;6204880;23;20184;-77
2022/02/24 03:19:56;;;;;;;20.03;4.93;;;7.60;99.90;;;;;;6203655;23;20185;-77
2022/02/24 03:22:23;;;;;;;14.83;3.00;;;7.60;99.90;;;;;;6204210;23;20205;-77
2022/02/24 03:24:51;;;;;;;15.63;4.03;;;7.60;99.90;;;;;;6203531;23;20554;-76
2022/02/24 03:27:18;;;;;;;17.23;4.40;;;7.60;99.90;;;;;;6203883;23;20768;-77
2022/02/24 03:29:46;;;;;;;19.53;3.70;;;7.60;99.90;;;;;;6204343;23;20185;-80
2022/02/24 03:32:13;;;;;;;16.87;3.77;;;7.60;99.90;;;;;;6204700;23;20205;-76
2022/02/24 03:34:40;;;;;;;16.77;3.70;;;7.60;99.90;;;;;;6203044;23;20185;-77
2022/02/24 03:37:07;;;;;;;17.07;3.40;;;7.70;99.90;;;;;;6204562;23;20527;-78
2022/02/24 03:39:34;;;;;;;20.70;3.87;;;7.70;99.90;;;;;;6204366;23;20182;-78
2022/02/24 03:42:01;;;;;;;12.77;3.37;;;7.70;99.90;;;;;;6202735;23;20170;-77
2022/02/24 03:44:27;;;;;;;15.33;3.20;;;7.70;99.90;;;;;;6204277;23;20178;-78
2022/02/24 03:46:55;;;;;;;17.43;3.40;;;7.60;99.90;;;;;;6203527;23;20174;-77
2022/02/24 03:49:22;;;;;;;16.10;3.80;;;7.60;99.90;;;;;;6203201;23;20889;-77
2022/02/24 03:51:50;;;;;;;17.97;3.67;;;7.60;99.90;;;;;;6204170;23;20220;-77
2022/02/24 03:54:17;;;;;;;18.00;3.70;;;7.60;99.90;;;;;;6204147;23;20189;-76
2022/02/24 03:56:44;;;;;;;15.77;3.50;;;7.60;99.90;;;;;;6201354;23;20197;-76
2022/02/24 03:59:11;;;;;;;20.43;3.63;;;7.60;99.90;;;;;;6201417;23;20904;-78
2022/02/24 04:01:38;;;;;;;13.10;3.70;;;7.70;99.90;;;;;;6201802;23;20166;-76
2022/02/24 04:04:06;;;;;;;15.47;4.83;;;7.70;99.90;;;;;;6203809;23;20684;-78
2022/02/24 04:06:33;;;;;;;19.57;3.90;;;7.60;99.90;;;;;;6203399;23;20182;-77
2022/02/24 04:09:00;;;;;;;18.13;4.07;;;7.70;99.90;;;;;;6203645;23;20174;-76
2022/02/24 04:11:27;;;;;;;18.37;4.77;;;7.70;99.90;;;;;;6202881;23;20522;-77
2022/02/24 04:13:54;;;;;;;18.17;4.33;;;7.70;99.90;;;;;;6205880;23;20176;-77
2022/02/24 04:16:20;;;;;;;20.40;4.57;;;7.80;99.90;;;;;;6205600;23;20173;-77
2022/02/24 04:18:47;;;;;;;16.63;3.77;;;7.80;99.90;;;;;;6205363;23;20178;-78
2022/02/24 04:21:15;;;;;;;18.03;5.27;;;7.90;99.90;;;;;;6205381;23;20493;-75
2022/02/24 04:23:42;;;;;;;19.23;4.07;;;7.90;99.90;;;;;;6204940;23;20213;-77
2022/02/24 04:26:09;;;;;;;14.03;4.43;;;7.90;99.90;;;;;;6205518;23;20605;-76
2022/02/24 04:28:36;;;;;;;14.07;4.00;;;7.90;99.90;;;;;;6205341;23;20173;-77
2022/02/24 04:31:03;;;;;;;14.73;3.30;;;7.90;99.90;;;;;;6203980;23;20201;-77
2022/02/24 04:33:29;;;;;;;15.13;4.20;;;7.90;99.90;;;;;;6205430;23;20185;-78
2022/02/24 04:35:56;;;;;;;15.00;3.97;;;7.90;99.90;;;;;;6205582;23;20185;-78
2022/02/24 04:38:24;;;;;;;15.67;3.60;;;7.90;99.90;;;;;;6204741;23;20643;-77
2022/02/24 04:40:51;;;;;;;13.63;3.70;;;7.90;99.90;;;;;;6205050;23;20178;-77
2022/02/24 04:43:18;;;;;;;16.17;3.57;;;7.90;99.90;;;;;;6205520;23;20178;-78
2022/02/24 04:45:45;;;;;;;9.83;3.50;;;8.00;99.90;;;;;;6205072;23;20182;-77
2022/02/24 04:48:12;;;;;;;15.20;3.87;;;8.00;99.90;;;;;;6205716;23;20181;-75
2022/02/24 04:50:39;;;;;;;15.33;3.60;;;8.00;99.90;;;;;;6205196;23;20181;-78
2022/02/24 04:53:06;;;;;;;13.07;3.73;;;8.00;99.90;;;;;;6204570;23;20193;-78
2022/02/24 04:55:34;;;;;;;11.47;3.77;;;8.00;99.90;;;;;;6205726;23;20185;-77
2022/02/24 04:58:01;;;;;;;22.57;3.63;;;7.90;99.90;;;;;;6205424;23;20439;-76
2022/02/24 05:00:28;;;;;;;16.87;3.23;;;7.90;99.90;;;;;;6205436;23;20197;-75
2022/02/24 05:02:54;;;;;;;11.37;3.33;;;8.00;99.90;;;;;;6205421;23;20178;-77
2022/02/24 05:05:21;;;;;;;18.47;3.80;;;8.00;99.90;;;;;;6205610;23;20567;-77
2022/02/24 05:07:48;;;;;;;11.03;3.50;;;8.00;99.90;;;;;;6205622;23;20479;-77
2022/02/24 05:10:15;;;;;;;14.10;3.77;;;7.90;99.90;;;;;;6206320;23;20174;-77
2022/02/24 05:12:44;;;;;;;12.77;3.93;;;8.00;99.90;;;;;;6204851;23;20198;-77
2022/02/24 05:15:11;;;;;;;16.73;3.40;;;8.00;99.90;;;;;;6205135;23;20177;-77
2022/02/24 05:17:40;;;;;;;18.10;4.00;;;7.90;99.90;;;;;;6205130;23;20177;-77
2022/02/24 05:20:08;;;;;;;17.53;4.53;;;7.90;99.90;;;;;;6204405;23;20174;-77
2022/02/24 05:22:35;;;;;;;18.23;4.07;;;7.90;99.90;;;;;;6204538;23;20304;-77
2022/02/24 05:25:02;;;;;;;19.33;5.00;;;7.90;99.90;;;;;;6202444;23;20473;-78
2022/02/24 05:27:30;;;;;;;17.33;3.93;;;7.90;99.90;;;;;;6204414;23;20185;-78
2022/02/24 05:29:59;;;;;;;11.27;3.40;;;7.80;99.90;;;;;;6204093;23;20563;-78
2022/02/24 05:32:25;;;;;;;14.47;3.97;;;7.90;99.90;;;;;;6205292;23;20194;-76
2022/02/24 05:34:52;;;;;;;15.70;4.80;;;7.90;99.90;;;;;;6204622;23;20446;-78
2022/02/24 05:37:21;;;;;;;15.77;3.07;;;7.90;99.90;;;;;;6205085;23;20186;-76
2022/02/24 05:39:48;;;;;;;15.17;4.27;;;7.90;99.90;;;;;;6205135;23;20174;-77
2022/02/24 05:42:14;;;;;;;11.47;3.20;;;7.90;99.90;;;;;;6205960;23;20189;-77
2022/02/24 05:44:41;;;;;;;13.97;3.87;;;7.90;99.90;;;;;;6205091;23;20170;-77
2022/02/24 05:47:09;;;;;;;17.70;3.70;;;7.90;99.90;;;;;;6206285;23;20181;-76
2022/02/24 05:49:37;;;;;;;13.30;3.87;;;7.90;99.90;;;;;;6205475;23;20680;-77
2022/02/24 05:52:05;;;;;;;15.40;3.20;;;7.90;99.90;;;;;;6204533;23;20201;-77
2022/02/24 05:54:32;;;;;;;14.67;3.70;;;7.90;99.90;;;;;;6204722;23;20181;-78
2022/02/24 05:56:58;;;;;;;12.40;3.90;;;7.90;99.90;;;;;;6204717;23;20173;-78
2022/02/24 05:59:26;;;;;;;18.07;4.87;;;7.90;99.90;;;;;;6204335;23;20228;-78
2022/02/24 06:01:52;;;;;;;14.03;4.00;;;8.00;99.90;;;;;;6202901;23;20169;-77
2022/02/24 06:04:20;;;;;;;16.77;3.60;;;8.00;99.90;;;;;;6204809;23;20281;-77
2022/02/24 06:06:48;;;;;;;20.60;3.87;;;8.00;99.90;;;;;;6203707;23;20170;-75
2022/02/24 06:09:15;;;;;;;13.73;3.60;;;7.90;99.90;;;;;;6204845;23;20178;-76
2022/02/24 06:11:41;;;;;;;13.50;3.07;;;7.90;99.90;;;;;;6204809;23;20198;-77
2022/02/24 06:14:08;;;;;;;12.67;3.43;;;7.90;99.90;;;;;;6204441;23;20177;-77
2022/02/24 06:16:35;;;;;;;13.40;3.53;;;7.90;99.90;;;;;;6203646;23;20174;-77
2022/02/24 06:19:01;;;;;;;14.07;4.07;;;7.90;99.90;;;;;;6202343;23;20988;-77
2022/02/24 06:21:30;;;;;;;15.07;3.27;;;7.90;99.90;;;;;;6200980;23;20529;-77
2022/02/24 06:23:56;;;;;;;16.07;3.87;;;7.90;99.90;;;;;;6201360;23;20170;-77
2022/02/24 06:26:23;;;;;;;14.73;3.40;;;7.90;99.90;;;;;;6200553;23;20166;-77
2022/02/24 06:28:50;;;;;;;16.30;3.50;;;7.90;99.90;;;;;;6202811;23;20195;-76
2022/02/24 06:31:17;;;;;;;14.70;3.80;;;7.90;99.90;;;;;;6202448;23;20174;-76
2022/02/24 06:33:43;;;;;;;15.70;3.67;;;7.90;99.90;;;;;;6201793;23;20166;-78
2022/02/24 06:36:10;;;;;;;18.23;3.47;;;7.90;99.90;;;;;;6201905;23;20724;-77
2022/02/24 06:38:39;;;;;;;16.33;3.67;;;7.90;99.90;;;;;;6201566;23;20174;-76
2022/02/24 06:41:05;;;;;;;18.03;4.37;;;7.90;99.90;;;;;;6202323;23;20181;-76
2022/02/24 06:43:32;;;;;;;14.33;3.17;;;7.90;99.90;;;;;;6202164;23;20170;-77
2022/02/24 06:45:59;;;;;;;13.33;3.20;;;7.90;99.90;;;;;;6201266;23;20784;-76
2022/02/24 06:48:28;;;;;;;20.00;5.47;;;7.90;99.90;;;;;;6202673;23;20182;-76
2022/02/24 06:50:55;;;;;;;16.70;3.20;;;7.90;99.90;;;;;;6201243;23;20253;-77
2022/02/24 06:53:22;;;;;;;13.03;3.73;;;7.90;99.90;;;;;;6201549;23;20198;-77
2022/02/24 06:55:50;;;;;;;17.30;3.37;;;8.00;99.90;;;;;;6201332;23;20167;-75
2022/02/24 06:58:17;;;;;;;14.50;4.20;;;8.00;99.90;;;;;;6203086;23;20174;-76
2022/02/24 07:00:44;;;;;;;8.90;3.23;;;8.00;99.90;;;;;;6204950;23;20266;-79
2022/02/24 07:03:11;;;;;;;15.57;3.37;;;8.00;99.90;;;;;;6203766;23;20174;-78
2022/02/24 07:05:37;;;;;;;12.07;3.03;;;8.00;99.90;;;;;;6203688;23;20423;-78
2022/02/24 07:08:05;;;;;;;9.03;3.77;;;8.10;99.90;;;;;;6203509;23;20189;-78
2022/02/24 07:10:31;;;;;;;16.13;3.37;;;8.10;99.90;;;;;;6204897;23;20174;-77
2022/02/24 07:12:59;;;;;;;15.50;3.87;;;8.10;99.90;;;;;;6203611;23;20546;-77
2022/02/24 07:15:26;;;;;;;11.63;3.17;;;8.10;99.90;;;;;;6204801;23;20212;-78
2022/02/24 07:17:53;;;;;;;14.70;3.57;;;8.20;99.90;;;;;;6204582;23;20244;-79
2022/02/24 07:20:20;;;;;;;10.40;2.90;;;8.20;99.90;;;;;;6203633;23;20170;-78
2022/02/24 07:22:47;;;;;;;8.17;3.37;;;8.20;99.90;;;;;;6203307;23;20564;-77
2022/02/24 07:25:14;;;;;;;11.97;2.43;;;8.20;99.90;;;;;;6204499;23;20212;-78
2022/02/24 07:27:41;;;;;;;16.53;3.90;;;8.20;99.90;;;;;;6203840;23;20174;-78
2022/02/24 07:30:11;;;;;;;11.60;2.87;;;8.20;99.90;;;;;;6203945;23;20178;-77
2022/02/24 07:32:38;;;;;;;10.70;3.17;;;8.20;99.90;;;;;;6204729;23;20209;-79
2022/02/24 07:35:06;;;;;;;10.17;3.20;;;8.30;99.90;;;;;;6203273;23;20170;-77
2022/02/24 07:37:33;;;;;;;7.83;2.97;;;8.30;99.90;;;;;;6204955;23;20185;-77
2022/02/24 07:39:59;;;;;;;9.27;3.10;;;8.30;99.90;;;;;;6203960;23;20563;-76
2022/02/24 07:42:28;;;;;;;10.73;3.47;;;8.40;99.90;;;;;;6203056;23;20585;-77
2022/02/24 07:44:55;;;;;;;9.87;2.87;;;8.30;99.90;;;;;;6204064;23;20185;-77
2022/02/24 07:47:25;;;;;;;9.37;3.40;;;8.30;99.90;;;;;;6203106;23;20642;-77
2022/02/24 07:49:52;;;;;;;9.47;2.80;;;8.40;99.90;;;;;;6203696;23;20166;-78
2022/02/24 07:52:19;;;;;;;14.40;3.67;;;8.30;99.90;;;;;;6204256;23;20202;-77
2022/02/24 07:54:46;;;;;;;8.47;2.90;;;8.40;99.90;;;;;;6202506;23;20170;-77
2022/02/24 07:57:13;;;;;;;12.90;3.00;;;8.40;99.90;;;;;;6204609;23;20174;-77
2022/02/24 07:59:40;;;;;;;13.20;2.70;;;8.40;99.90;;;;;;6203193;23;20438;-77
2022/02/24 08:02:06;;;;;;;11.83;3.60;;;8.40;99.90;;;;;;6203633;23;20166;-77
2022/02/24 08:04:35;;;;;;;13.93;3.80;;;8.40;99.90;;;;;;6203037;23;20170;-77
2022/02/24 08:07:02;;;;;;;11.47;2.70;;;8.40;99.90;;;;;;6203177;23;20178;-77
2022/02/24 08:09:28;;;;;;;9.47;3.73;;;8.40;99.90;;;;;;6202801;23;20178;-77
2022/02/24 08:14:40;;;;;;;13.47;2.63;;;8.50;99.90;;;;;;6203503;23;20173;-76
2022/02/24 08:17:07;;;;;;;10.93;3.70;;;8.50;99.90;;;;;;6203397;23;20177;-78
2022/02/24 08:19:35;;;;;;;15.93;3.53;;;8.50;99.90;;;;;;6203829;23;20178;-80
2022/02/24 08:22:02;;;;;;;13.57;3.40;;;8.50;99.90;;;;;;6203376;23;20817;-77
2022/02/24 08:28:08;;;;;;;14.53;3.20;;;8.60;99.90;;;;;;6084663;23;20505;-75
2022/02/24 08:30:34;;;;;;;6.97;2.93;;;8.70;99.90;;;;;;6173713;23;20170;-78
2022/02/24 08:33:02;;;;;;;11.30;3.23;;;8.70;99.90;;;;;;6173984;23;20202;-76
2022/02/24 08:35:30;;;;;;;15.20;3.73;;;8.80;99.90;;;;;;6173451;23;20175;-77
2022/02/24 08:37:57;;;;;;;15.37;4.83;;;8.80;99.90;;;;;;6173538;23;20186;-77
2022/02/24 08:40:24;;;;;;;16.27;3.10;;;8.90;99.90;;;;;;6174429;23;20179;-78
2022/02/24 08:42:51;;;;;;;10.27;3.03;;;8.90;99.90;;;;;;6173589;23;20175;-77
2022/02/24 08:45:19;;;;;;;11.00;3.00;;;8.90;99.90;;;;;;6173070;23;20179;-77
2022/02/24 08:47:46;;;;;;;9.87;3.07;;;9.00;99.90;;;;;;6168696;23;20687;-79
2022/02/24 08:50:14;;;;;;;10.97;3.23;;;9.10;99.90;;;;;;6173880;23;20167;-76
2022/02/24 08:52:42;;;;;;;15.50;3.80;;;9.10;99.90;;;;;;6173534;23;20205;-76
2022/02/24 08:55:09;;;;;;;14.50;3.13;;;9.20;99.90;;;;;;6174362;23;20181;-76
2022/02/24 08:57:36;;;;;;;12.00;2.60;;;9.20;99.90;;;;;;6173677;23;20175;-78
2022/02/24 09:00:04;;;;;;;13.37;2.90;;;9.30;99.90;;;;;;6175565;23;20199;-78
2022/02/24 09:02:34;;;;;;;7.93;2.63;;;9.40;99.90;;;;;;6175282;23;20178;-81
2022/02/24 09:05:01;;;;;;;12.67;2.90;;;9.40;99.90;;;;;;6174413;23;20175;-78
2022/02/24 09:07:28;;;;;;;8.90;4.50;;;9.40;99.90;;;;;;6176109;23;20182;-79
2022/02/24 09:09:56;;;;;;;9.47;2.60;;;9.40;99.90;;;;;;6175606;23;20583;-78
2022/02/24 09:12:23;;;;;;;12.23;3.27;;;9.50;99.90;;;;;;6174312;23;20233;-78
2022/02/24 09:14:49;;;;;;;10.63;2.60;;;9.50;99.90;;;;;;6176091;23;20186;-75
2022/02/24 09:17:16;;;;;;;13.07;3.40;;;9.50;99.90;;;;;;6176326;23;20199;-80
2022/02/24 09:19:43;;;;;;;11.20;3.10;;;9.40;99.90;;;;;;6174717;23;20166;-78
2022/02/24 09:22:12;;;;;;;8.73;2.53;;;9.40;99.90;;;;;;6176341;23;20233;-79
2022/02/24 09:24:39;;;;;;;9.23;2.90;;;9.40;99.90;;;;;;6175894;23;20206;-77
2022/02/24 09:27:08;;;;;;;15.87;3.23;;;9.40;99.90;;;;;;6191385;23;20205;-76
2022/02/24 09:29:37;;;;;;;11.77;3.20;;;9.40;99.90;;;;;;6204997;23;20166;-77
2022/02/24 09:32:04;;;;;;;10.53;3.50;;;9.40;99.90;;;;;;6205273;23;20276;-77
2022/02/24 09:34:31;;;;;;;11.03;2.50;;;9.50;99.90;;;;;;6205024;23;20209;-75
2022/02/24 09:36:59;;;;;;;8.17;3.07;;;9.50;99.90;;;;;;6205294;23;20178;-75
2022/02/24 09:39:26;;;;;;;6.37;2.13;;;9.60;99.90;;;;;;6205916;23;20262;-76
2022/02/24 09:41:54;;;;;;;8.13;2.20;;;9.70;99.90;;;;;;6205156;23;20178;-76
2022/02/24 09:44:22;;;;;;;12.40;3.03;;;9.70;99.90;;;;;;6205944;23;20417;-77
2022/02/24 09:46:52;;;;;;;7.90;3.47;;;9.70;99.90;;;;;;6202006;23;20170;-77
2022/02/24 09:49:20;;;;;;;12.20;2.67;;;9.70;99.90;;;;;;6205145;23;20178;-77
2022/02/24 09:51:47;;;;;;;8.60;2.20;;;9.70;99.90;;;;;;6204903;23;20279;-78
2022/02/24 09:54:14;;;;;;;11.73;3.23;;;9.80;99.90;;;;;;6204725;23;20197;-77
2022/02/24 09:56:42;;;;;;;9.43;2.97;;;9.80;99.90;;;;;;6202611;23;20177;-78
2022/02/24 09:59:09;;;;;;;10.10;2.73;;;9.90;99.90;;;;;;6202558;23;20284;-77
2022/02/24 10:01:40;;;;;;;9.90;2.70;;;9.90;99.90;;;;;;6203195;23;20192;-78
2022/02/24 10:04:09;;;;;;;12.20;2.60;;;10.00;99.90;;;;;;6201000;23;20579;-78
2022/02/24 10:06:38;;;;;;;9.90;2.40;;;10.00;99.90;;;;;;6203436;23;20190;-77
2022/02/24 10:09:07;;;;;;;13.50;4.80;;;10.00;99.90;;;;;;6204113;23;20189;-78
2022/02/24 10:11:35;;;;;;;11.30;2.60;;;10.10;99.90;;;;;;6203036;23;20182;-78
2022/02/24 10:14:05;;;;;;;7.73;2.70;;;10.00;99.90;;;;;;6203224;23;20244;-77
2022/02/24 10:16:49;;;;;;;11.23;3.80;;;10.00;99.90;;;;;;6203114;23;20178;-77
2022/02/24 10:19:18;;;;;;;10.57;2.67;;;10.00;99.90;;;;;;6204097;23;20186;-78
2022/02/24 10:22:05;;;;;;;6.97;2.23;;;10.00;99.90;;;;;;6203719;23;20245;-78
2022/02/24 10:24:32;;;;;;;10.10;2.30;;;10.10;99.90;;;;;;6203849;23;20178;-77
2022/02/24 10:27:21;;;;;;;11.33;2.50;;;10.10;99.90;;;;;;6203099;23;20225;-78
2022/02/24 10:30:01;;;;;;;11.03;2.60;;;10.10;99.90;;;;;;6202943;23;20201;-77
2022/02/24 10:32:35;;;;;;;11.03;2.40;;;10.10;99.90;;;;;;6203298;23;20209;-76
2022/02/24 10:35:23;;;;;;;12.37;2.90;;;10.10;99.90;;;;;;6202927;23;20189;-82
2022/02/24 10:38:02;;;;;;;9.77;2.37;;;10.00;99.90;;;;;;6201789;23;20200;-77
2022/02/24 10:40:31;;;;;;;11.33;3.13;;;9.90;99.90;;;;;;6203079;23;20516;-78
2022/02/24 10:43:14;;;;;;;11.90;3.13;;;9.90;99.90;;;;;;6202861;23;20506;-77
2022/02/24 10:45:43;;;;;;;14.97;3.43;;;9.90;99.90;;;;;;6201376;23;20785;-77
2022/02/24 10:48:10;;;;;;;7.97;2.60;;;9.80;99.90;;;;;;6201969;23;20619;-77
2022/02/24 10:50:49;;;;;;;11.73;3.10;;;9.80;99.90;;;;;;6202391;23;20192;-79
2022/02/24 10:53:19;;;;;;;9.57;3.00;;;9.70;99.90;;;;;;6202534;23;20209;-78
2022/02/24 10:56:04;;;;;;;8.27;2.47;;;9.70;99.90;;;;;;6201575;23;20188;-78
2022/02/24 10:58:33;;;;;;;12.93;3.03;;;9.70;99.90;;;;;;6202112;23;20610;-76
2022/02/24 11:01:11;;;;;;;8.53;2.07;;;9.70;99.90;;;;;;6201367;23;20277;-78
2022/02/24 11:03:42;;;;;;;12.87;3.33;;;9.70;99.90;;;;;;6202554;23;20177;-77
2022/02/24 11:06:12;;;;;;;8.37;3.00;;;9.70;99.90;;;;;;6203086;23;20185;-78
2022/02/24 11:08:42;;;;;;;12.67;3.60;;;9.60;99.90;;;;;;6203507;23;20186;-75
2022/02/24 11:11:11;;;;;;;12.63;3.47;;;9.60;99.90;;;;;;6202420;23;20182;-76
2022/02/24 11:13:38;;;;;;;9.00;2.63;;;9.60;99.90;;;;;;6202242;23;20194;-76
2022/02/24 11:16:05;;;;;;;11.97;2.70;;;9.60;99.90;;;;;;6202983;23;20189;-77
2022/02/24 11:18:32;;;;;;;8.70;2.93;;;9.60;99.90;;;;;;6203037;23;20264;-77
2022/02/24 11:20:59;;;;;;;14.10;4.63;;;9.50;99.90;;;;;;6204273;23;20256;-77
2022/02/24 11:23:27;;;;;;;9.33;2.47;;;9.50;99.90;;;;;;6203234;23;20209;-78
2022/02/24 11:26:33;;;;;;;12.87;3.37;;;9.40;99.90;;;;;;6203752;23;20182;-80
2022/02/24 11:29:06;;;;;;;15.90;2.97;;;9.30;99.90;;;;;;6205237;23;20244;-82
2022/02/24 11:31:44;;;;;;;18.57;3.80;;;9.10;99.90;;;;;;6204102;23;20444;-80
2022/02/24 11:34:11;;;;;;;13.50;3.83;;;9.00;99.90;;;;;;6204800;23;20259;-80
2022/02/24 11:36:41;;;;;;;9.90;3.10;;;9.00;99.90;;;;;;6205901;23;20221;-84
2022/02/24 11:39:12;;;;;;;14.83;3.53;;;8.90;99.90;;;;;;6205652;23;20174;-83
2022/02/24 11:41:53;;;;;;;16.37;4.00;;;8.90;99.90;;;;;;6205623;23;20193;-82
2022/02/24 11:44:34;;;;;;;18.00;4.07;;;8.80;99.90;;;;;;6207039;23;20204;-82
2022/02/24 11:47:03;;;;;;;15.57;4.63;;;8.80;99.90;;;;;;6205864;23;20177;-82
2022/02/24 11:50:15;;;;;;;20.63;4.87;;;8.70;99.90;;;;;;6204732;23;20567;-79
2022/02/24 11:52:51;;;;;;;22.73;4.73;;;8.60;99.90;;;;;;6171037;23;20192;-84
2022/02/24 11:55:46;;;;;;;15.97;4.00;;;8.50;99.90;;;;;;6206885;23;20200;-82
2022/02/24 11:58:57;;;;;;;9.57;2.00;;;8.40;99.90;;;;;;6208212;23;20212;-81
2022/02/24 12:01:30;;;;;;;4.80;1.53;;;8.20;99.90;;;;;;6204694;23;20181;-81
2022/02/24 12:04:03;;;;;;;10.70;2.60;;;8.00;99.90;;;;;;6205261;23;20182;-82
2022/02/24 12:06:40;;;;;;;11.67;2.60;;;7.90;99.90;;;;;;6205441;23;20598;-81
2022/02/24 12:09:09;;;;;;;10.60;2.53;;;7.80;99.90;;;;;;6203326;23;20181;-81
2022/02/24 12:11:40;;;;;;;12.37;2.60;;;7.70;99.90;;;;;;6203786;23;20269;-82
2022/02/24 12:14:45;;;;;;;16.87;3.87;;;7.70;99.90;;;;;;6205416;23;20213;-81
2022/02/24 12:17:15;;;;;;;17.27;4.43;;;7.60;99.90;;;;;;6205178;23;20185;-80
2022/02/24 12:19:45;;;;;;;16.03;3.17;;;7.60;99.90;;;;;;6205042;23;20181;-81
2022/02/24 12:22:18;;;;;;;14.03;3.83;;;7.50;99.90;;;;;;6205479;23;20261;-83
2022/02/24 12:24:48;;;;;;;17.23;4.00;;;7.50;99.90;;;;;;6205318;23;20429;-82
2022/02/24 12:27:33;;;;;;;18.97;4.83;;;7.50;99.90;;;;;;6206227;23;20201;-82
2022/02/24 12:30:03;;;;;;;13.77;3.77;;;7.60;99.90;;;;;;6206867;23;20188;-83
2022/02/24 12:32:41;;;;;;;16.63;3.70;;;7.50;99.90;;;;;;6206645;23;20877;-83
2022/02/24 12:35:10;;;;;;;18.83;4.67;;;7.60;99.90;;;;;;6210279;23;20288;-84
2022/02/24 12:37:39;;;;;;;18.17;4.10;;;7.60;99.90;;;;;;6210006;23;20205;-85
2022/02/24 12:40:08;;;;;;;21.57;4.13;;;7.60;99.90;;;;;;6210285;23;20182;-83
2022/02/24 12:42:36;;;;;;;16.07;4.13;;;7.60;99.90;;;;;;6209496;23;20189;-81
2022/02/24 12:45:04;;;;;;;14.67;5.90;;;7.70;99.90;;;;;;6210125;23;20244;-84
2022/02/24 12:47:32;;;;;;;16.93;3.53;;;7.70;99.90;;;;;;6209075;23;20170;-86
2022/02/24 12:49:59;;;;;;;13.33;2.80;;;7.70;99.90;;;;;;6209149;23;20178;-83
2022/02/24 12:52:28;;;;;;;12.50;2.50;;;7.70;99.90;;;;;;6209705;23;20182;-83
2022/02/24 12:54:55;;;;;;;10.90;3.27;;;7.70;99.90;;;;;;6210154;23;20197;-88
2022/02/24 12:57:22;;;;;;;8.43;1.63;;;7.70;99.90;;;;;;6211360;23;20182;-84
2022/02/24 12:59:50;;;;;;;4.17;0.83;;;7.20;99.90;;;;;;6210208;23;20220;-83
2022/02/24 13:02:17;;;;;;;3.23;0.93;;;6.80;99.90;;;;;;6209581;23;20186;-82